createdAt,value
2023-05-16T00:00:43.009Z,19.36
2023-05-16T00:01:43.143Z,19.18
2023-05-16T00:02:43.289Z,19.06
2023-05-16T00:03:43.325Z,19.11
2023-05-16T00:04:43.359Z,18.43
2023-05-16T00:05:43.338Z,19.19
2023-05-16T00:06:43.771Z,18.52
2023-05-16T00:07:43.521Z,18.41
2023-05-16T00:08:43.558Z,18.73
2023-05-16T00:09:43.579Z,18.64
2023-05-16T00:10:43.626Z,18.39
2023-05-16T00:11:43.698Z,18.33
2023-05-16T00:12:43.780Z,17.96
2023-05-16T00:13:43.817Z,17.99
2023-05-16T00:14:43.918Z,18.24
2023-05-16T00:15:43.985Z,17.74
2023-05-16T00:16:44.076Z,17.75
2023-05-16T00:17:44.156Z,17.88
2023-05-16T00:18:44.152Z,17.59
2023-05-16T00:19:44.202Z,17.73
2023-05-16T00:20:44.274Z,17.25
2023-05-16T00:21:44.386Z,17.73
2023-05-16T00:22:44.402Z,17.74
2023-05-16T00:23:44.486Z,17.78
2023-05-16T00:24:44.518Z,17.58
2023-05-16T00:25:44.679Z,17.50
2023-05-16T00:26:44.685Z,17.15
2023-05-16T00:27:44.746Z,17.50
2023-05-16T00:28:44.788Z,17.59
2023-05-16T00:29:44.851Z,17.20
2023-05-16T00:30:44.917Z,17.46
2023-05-16T00:31:45.043Z,17.36
2023-05-16T00:32:45.058Z,17.01
2023-05-16T00:33:45.159Z,17.57
2023-05-16T00:34:45.178Z,16.85
2023-05-16T00:35:45.222Z,17.01
2023-05-16T00:36:45.261Z,16.78
2023-05-16T00:37:45.347Z,16.62
2023-05-16T00:38:45.420Z,16.64
2023-05-16T00:39:45.602Z,16.68
2023-05-16T00:40:45.571Z,16.69
2023-05-16T00:41:45.551Z,16.30
2023-05-16T00:42:45.622Z,16.36
2023-05-16T00:43:45.702Z,16.20
2023-05-16T00:44:45.790Z,16.47
2023-05-16T00:45:45.776Z,15.75
2023-05-16T00:46:45.890Z,16.16
2023-05-16T00:47:46.026Z,15.90
2023-05-16T00:48:45.977Z,16.22
2023-05-16T00:49:46.093Z,16.34
2023-05-16T00:50:46.098Z,16.10
2023-05-16T00:51:46.132Z,15.88
2023-05-16T00:52:46.243Z,15.96
2023-05-16T00:53:46.257Z,15.87
2023-05-16T00:54:46.324Z,15.94
2023-05-16T00:55:46.389Z,16.06
2023-05-16T00:56:46.449Z,15.79
2023-05-16T00:57:46.544Z,15.92
2023-05-16T00:58:46.607Z,15.64
2023-05-16T00:59:46.713Z,15.99
2023-05-16T01:00:48.591Z,15.81
2023-05-16T01:01:46.873Z,15.66
2023-05-16T01:02:46.939Z,15.38
2023-05-16T01:03:48.087Z,15.39
2023-05-16T01:04:47.011Z,15.10
2023-05-16T01:05:47.014Z,15.31
2023-05-16T01:06:47.060Z,15.43
2023-05-16T01:07:47.165Z,15.40
2023-05-16T01:08:47.202Z,15.04
2023-05-16T01:09:47.222Z,15.43
2023-05-16T01:10:47.257Z,14.96
2023-05-16T01:11:47.864Z,15.34
2023-05-16T01:12:47.389Z,15.14
2023-05-16T01:13:47.474Z,14.86
2023-05-16T01:14:47.584Z,15.05
2023-05-16T01:15:47.519Z,15.11
2023-05-16T01:16:47.706Z,14.75
2023-05-16T01:17:47.875Z,15.27
2023-05-16T01:18:47.726Z,15.01
2023-05-16T01:19:47.858Z,14.91
2023-05-16T01:20:47.864Z,15.10
2023-05-16T01:21:48.038Z,14.82
2023-05-16T01:22:47.968Z,14.71
2023-05-16T01:23:48.059Z,14.80
2023-05-16T01:24:48.151Z,15.11
2023-05-16T01:25:48.169Z,15.26
2023-05-16T01:26:48.192Z,15.07
2023-05-16T01:27:48.285Z,15.04
2023-05-16T01:28:48.389Z,15.01
2023-05-16T01:29:48.402Z,14.83
2023-05-16T01:30:48.492Z,14.72
2023-05-16T01:31:48.573Z,14.91
2023-05-16T01:32:48.619Z,14.75
2023-05-16T01:33:48.631Z,14.52
2023-05-16T01:34:48.642Z,14.52
2023-05-16T01:35:48.675Z,14.73
2023-05-16T01:36:48.691Z,14.77
2023-05-16T01:37:48.739Z,14.42
2023-05-16T01:38:48.802Z,14.35
2023-05-16T01:39:48.891Z,14.46
2023-05-16T01:40:48.903Z,14.29
2023-05-16T01:41:48.971Z,14.23
2023-05-16T01:42:49.109Z,14.29
2023-05-16T01:43:49.109Z,14.24
2023-05-16T01:44:49.238Z,14.43
2023-05-16T01:45:49.202Z,13.89
2023-05-16T01:46:49.238Z,14.28
2023-05-16T01:47:49.378Z,14.00
2023-05-16T01:48:49.331Z,14.18
2023-05-16T01:49:49.461Z,14.22
2023-05-16T01:50:49.446Z,14.20
2023-05-16T01:51:49.522Z,14.32
2023-05-16T01:52:49.565Z,14.01
2023-05-16T01:53:49.585Z,14.00
2023-05-16T01:54:49.725Z,13.83
2023-05-16T01:55:49.689Z,13.93
2023-05-16T01:56:49.754Z,14.19
2023-05-16T01:57:49.837Z,14.14
2023-05-16T01:58:49.903Z,14.01
2023-05-16T01:59:50.044Z,13.96
2023-05-16T02:00:50.009Z,14.06
2023-05-16T02:01:50.033Z,13.46
2023-05-16T02:02:50.178Z,13.80
2023-05-16T02:03:50.206Z,13.70
2023-05-16T02:04:50.248Z,13.74
2023-05-16T02:05:50.287Z,13.74
2023-05-16T02:06:50.385Z,13.66
2023-05-16T02:07:50.423Z,13.54
2023-05-16T02:08:50.465Z,13.71
2023-05-16T02:09:50.631Z,13.25
2023-05-16T02:10:50.635Z,13.63
2023-05-16T02:11:50.698Z,13.62
2023-05-16T02:12:50.756Z,13.55
2023-05-16T02:13:50.735Z,13.44
2023-05-16T02:14:50.730Z,13.13
2023-05-16T02:15:50.787Z,13.30
2023-05-16T02:16:50.848Z,13.59
2023-05-16T02:17:50.926Z,13.33
2023-05-16T02:18:51.024Z,13.32
2023-05-16T02:19:51.004Z,13.02
2023-05-16T02:20:51.088Z,13.28
2023-05-16T02:21:51.122Z,13.14
2023-05-16T02:22:51.197Z,13.15
2023-05-16T02:23:51.234Z,13.19
2023-05-16T02:24:51.281Z,13.35
2023-05-16T02:25:51.374Z,12.97
2023-05-16T02:26:51.369Z,13.11
2023-05-16T02:27:51.394Z,12.96
2023-05-16T02:28:51.484Z,13.07
2023-05-16T02:29:51.586Z,13.13
2023-05-16T02:30:51.626Z,13.11
2023-05-16T02:31:51.644Z,13.01
2023-05-16T02:32:51.737Z,13.02
2023-05-16T02:33:51.737Z,12.54
2023-05-16T02:34:51.794Z,12.92
2023-05-16T02:35:51.841Z,12.65
2023-05-16T02:36:51.951Z,12.59
2023-05-16T02:37:51.938Z,12.37
2023-05-16T02:38:51.974Z,12.48
2023-05-16T02:39:52.187Z,12.45
2023-05-16T02:40:52.080Z,12.51
2023-05-16T02:41:52.202Z,12.41
2023-05-16T02:42:52.166Z,12.63
2023-05-16T02:43:52.158Z,12.58
2023-05-16T02:44:52.213Z,12.33
2023-05-16T02:45:52.329Z,12.26
2023-05-16T02:46:52.447Z,12.30
2023-05-16T02:47:52.454Z,12.48
2023-05-16T02:48:52.437Z,12.30
2023-05-16T02:49:52.575Z,12.06
2023-05-16T02:50:52.516Z,12.42
2023-05-16T02:51:52.625Z,12.12
2023-05-16T02:52:52.714Z,12.27
2023-05-16T02:53:52.686Z,12.06
2023-05-16T02:55:52.763Z,12.40
2023-05-16T02:56:52.766Z,12.29
2023-05-16T02:57:52.718Z,12.18
2023-05-16T02:58:52.715Z,12.18
2023-05-16T02:59:52.780Z,12.36
2023-05-16T03:00:52.717Z,12.11
2023-05-16T03:01:52.818Z,12.26
2023-05-16T03:02:52.894Z,12.00
2023-05-16T03:03:52.853Z,11.80
2023-05-16T03:04:52.720Z,11.99
2023-05-16T03:05:52.724Z,11.90
2023-05-16T03:06:52.690Z,12.14
2023-05-16T03:07:52.657Z,12.16
2023-05-16T03:08:52.673Z,12.05
2023-05-16T03:09:52.653Z,12.13
2023-05-16T03:10:52.658Z,11.95
2023-05-16T03:11:52.669Z,11.99
2023-05-16T03:12:52.668Z,11.93
2023-05-16T03:13:52.691Z,12.09
2023-05-16T03:14:52.620Z,12.08
2023-05-16T03:15:52.656Z,12.00
2023-05-16T03:16:52.609Z,11.98
2023-05-16T03:17:52.711Z,11.95
2023-05-16T03:18:52.633Z,11.70
2023-05-16T03:19:52.573Z,11.71
2023-05-16T03:20:52.607Z,11.72
2023-05-16T03:21:52.591Z,11.47
2023-05-16T03:22:52.562Z,11.41
2023-05-16T03:23:52.572Z,11.41
2023-05-16T03:24:52.540Z,11.27
2023-05-16T03:25:52.555Z,11.36
2023-05-16T03:26:52.528Z,11.32
2023-05-16T03:27:52.567Z,11.15
2023-05-16T03:28:52.504Z,10.96
2023-05-16T03:29:52.604Z,10.97
2023-05-16T03:30:52.519Z,10.94
2023-05-16T03:31:52.567Z,10.87
2023-05-16T03:32:52.512Z,10.85
2023-05-16T03:33:52.479Z,10.74
2023-05-16T03:34:52.548Z,10.95
2023-05-16T03:35:52.479Z,10.83
2023-05-16T03:36:52.455Z,10.81
2023-05-16T03:37:52.463Z,11.33
2023-05-16T03:38:52.454Z,11.11
2023-05-16T03:39:52.436Z,10.91
2023-05-16T03:40:52.448Z,11.32
2023-05-16T03:41:52.416Z,11.07
2023-05-16T03:42:52.517Z,11.10
2023-05-16T03:43:52.532Z,11.04
2023-05-16T03:44:52.650Z,11.14
2023-05-16T03:45:52.707Z,11.28
2023-05-16T03:46:52.713Z,10.95
2023-05-16T03:47:52.763Z,10.97
2023-05-16T03:48:52.819Z,11.42
2023-05-16T03:49:52.847Z,11.02
2023-05-16T03:50:52.889Z,11.05
2023-05-16T03:51:52.952Z,11.02
2023-05-16T03:52:53.011Z,10.86
2023-05-16T03:53:53.035Z,10.88
2023-05-16T03:54:53.094Z,10.90
2023-05-16T03:55:53.169Z,10.56
2023-05-16T03:56:53.202Z,10.78
2023-05-16T03:57:53.283Z,10.82
2023-05-16T03:58:53.312Z,10.83
2023-05-16T03:59:53.359Z,10.74
2023-05-16T04:00:53.416Z,10.65
2023-05-16T04:01:53.520Z,10.51
2023-05-16T04:02:53.675Z,10.66
2023-05-16T04:03:53.493Z,10.63
2023-05-16T04:04:53.537Z,10.71
2023-05-16T04:05:53.684Z,10.66
2023-05-16T04:06:53.610Z,10.60
2023-05-16T04:07:53.700Z,10.47
2023-05-16T04:08:53.785Z,10.18
2023-05-16T04:09:53.779Z,10.04
2023-05-16T04:10:53.852Z,9.67
2023-05-16T04:11:53.875Z,9.70
2023-05-16T04:12:53.898Z,9.55
2023-05-16T04:13:53.973Z,9.54
2023-05-16T04:14:54.057Z,9.41
2023-05-16T04:15:54.078Z,9.30
2023-05-16T04:16:54.126Z,9.24
2023-05-16T04:17:54.247Z,9.22
2023-05-16T04:18:54.341Z,9.20
2023-05-16T04:19:54.303Z,9.13
2023-05-16T04:20:54.347Z,9.01
2023-05-16T04:21:54.431Z,9.06
2023-05-16T04:22:54.474Z,8.97
2023-05-16T04:23:54.532Z,8.87
2023-05-16T04:24:54.583Z,8.83
2023-05-16T04:25:54.652Z,8.85
2023-05-16T04:26:54.719Z,8.93
2023-05-16T04:27:54.782Z,8.98
2023-05-16T04:28:54.892Z,8.71
2023-05-16T04:29:55.163Z,8.92
2023-05-16T04:30:54.931Z,8.91
2023-05-16T04:31:55.037Z,8.91
2023-05-16T04:32:55.118Z,8.95
2023-05-16T04:33:55.123Z,9.03
2023-05-16T04:34:55.178Z,8.95
2023-05-16T04:35:55.193Z,9.10
2023-05-16T04:36:55.290Z,9.09
2023-05-16T04:37:55.288Z,9.03
2023-05-16T04:38:55.304Z,8.93
2023-05-16T04:39:55.369Z,9.11
2023-05-16T04:40:55.410Z,8.94
2023-05-16T04:41:55.431Z,9.06
2023-05-16T04:42:55.489Z,9.04
2023-05-16T04:43:55.539Z,8.93
2023-05-16T04:44:55.560Z,8.94
2023-05-16T04:45:55.647Z,8.96
2023-05-16T04:46:55.664Z,9.13
2023-05-16T04:47:55.748Z,9.16
2023-05-16T04:48:55.637Z,9.15
2023-05-16T04:49:55.646Z,8.87
2023-05-16T04:50:55.711Z,9.00
2023-05-16T04:51:55.710Z,9.00
2023-05-16T04:52:56.574Z,8.83
2023-05-16T04:53:55.652Z,8.82
2023-05-16T04:54:55.740Z,8.82
2023-05-16T04:55:55.668Z,8.87
2023-05-16T04:56:55.676Z,8.75
2023-05-16T04:57:55.668Z,8.77
2023-05-16T04:58:55.708Z,8.81
2023-05-16T04:59:55.765Z,8.63
2023-05-16T05:00:55.733Z,8.77
2023-05-16T05:01:55.717Z,8.72
2023-05-16T05:02:55.729Z,8.69
2023-05-16T05:03:55.643Z,8.87
2023-05-16T05:04:55.640Z,8.71
2023-05-16T05:05:55.613Z,8.91
2023-05-16T05:06:55.625Z,8.98
2023-05-16T05:07:55.696Z,9.12
2023-05-16T05:08:55.651Z,9.26
2023-05-16T05:09:55.615Z,9.31
2023-05-16T05:10:55.616Z,9.44
2023-05-16T05:11:55.622Z,9.54
2023-05-16T05:12:55.630Z,9.79
2023-05-16T05:13:55.661Z,9.93
2023-05-16T05:14:55.645Z,9.92
2023-05-16T05:15:55.599Z,9.71
2023-05-16T05:16:55.630Z,10.07
2023-05-16T05:17:55.676Z,9.99
2023-05-16T05:18:55.686Z,10.00
2023-05-16T05:19:55.588Z,10.22
2023-05-16T05:20:55.620Z,10.13
2023-05-16T05:21:55.562Z,10.35
2023-05-16T05:22:55.591Z,10.17
2023-05-16T05:23:55.592Z,10.44
2023-05-16T05:24:55.580Z,10.14
2023-05-16T05:25:55.658Z,10.33
2023-05-16T05:26:55.613Z,10.42
2023-05-16T05:27:55.603Z,10.32
2023-05-16T05:29:04.505Z,10.73
2023-05-16T05:29:56.609Z,10.60
2023-05-16T05:30:55.700Z,10.49
2023-05-16T05:31:55.622Z,10.87
2023-05-16T05:32:55.588Z,11.12
2023-05-16T05:33:55.593Z,11.87
2023-05-16T05:34:55.619Z,11.66
2023-05-16T05:35:55.679Z,11.90
2023-05-16T05:36:55.621Z,11.36
2023-05-16T05:37:55.654Z,11.92
2023-05-16T05:38:55.523Z,12.01
2023-05-16T05:39:55.582Z,12.37
2023-05-16T05:40:55.607Z,12.82
2023-05-16T05:41:55.527Z,13.51
2023-05-16T05:42:55.566Z,13.61
2023-05-16T05:43:55.567Z,14.13
2023-05-16T05:44:55.515Z,14.33
2023-05-16T05:45:55.514Z,14.18
2023-05-16T05:46:55.572Z,14.41
2023-05-16T05:47:55.464Z,14.92
2023-05-16T05:48:55.522Z,14.55
2023-05-16T05:49:55.512Z,14.45
2023-05-16T05:50:55.477Z,14.44
2023-05-16T05:51:55.432Z,14.46
2023-05-16T05:52:55.428Z,14.64
2023-05-16T05:53:55.404Z,14.87
2023-05-16T05:54:55.946Z,14.97
2023-05-16T05:55:55.512Z,15.06
2023-05-16T05:56:55.523Z,14.60
2023-05-16T05:57:55.535Z,15.11
2023-05-16T05:58:55.695Z,14.64
2023-05-16T05:59:55.707Z,14.92
2023-05-16T06:00:55.694Z,14.37
2023-05-16T06:01:55.795Z,14.76
2023-05-16T06:02:56.002Z,14.97
2023-05-16T06:03:55.922Z,15.02
2023-05-16T06:04:55.977Z,15.06
2023-05-16T06:05:56.059Z,14.95
2023-05-16T06:06:56.108Z,15.43
2023-05-16T06:07:56.104Z,15.12
2023-05-16T06:08:56.216Z,15.31
2023-05-16T06:09:56.270Z,14.86
2023-05-16T06:10:57.864Z,14.98
2023-05-16T06:11:56.332Z,14.89
2023-05-16T06:12:56.446Z,14.88
2023-05-16T06:13:56.496Z,15.01
2023-05-16T06:14:56.565Z,14.97
2023-05-16T06:15:56.610Z,14.73
2023-05-16T06:16:56.707Z,14.76
2023-05-16T06:17:56.821Z,14.65
2023-05-16T06:18:56.856Z,14.55
2023-05-16T06:19:56.855Z,14.77
2023-05-16T06:20:56.910Z,14.22
2023-05-16T06:21:56.961Z,14.68
2023-05-16T06:22:57.079Z,14.35
2023-05-16T06:23:57.076Z,14.56
2023-05-16T06:24:57.141Z,15.09
2023-05-16T06:25:57.252Z,14.38
2023-05-16T06:26:57.315Z,14.39
2023-05-16T06:27:57.390Z,14.68
2023-05-16T06:28:57.426Z,14.62
2023-05-16T06:29:57.479Z,14.45
2023-05-16T06:30:57.634Z,14.56
2023-05-16T06:31:57.773Z,14.79
2023-05-16T06:32:57.685Z,14.82
2023-05-16T06:33:57.664Z,14.33
2023-05-16T06:34:57.720Z,14.35
2023-05-16T06:35:57.736Z,14.36
2023-05-16T06:36:57.844Z,14.27
2023-05-16T06:37:58.458Z,17.36
2023-05-16T06:38:58.117Z,18.62
2023-05-16T06:39:57.704Z,19.38
2023-05-16T06:40:58.629Z,19.71
2023-05-16T06:41:57.720Z,19.52
2023-05-16T06:42:57.726Z,19.38
2023-05-16T06:43:57.728Z,20.07
2023-05-16T06:44:57.737Z,21.20
2023-05-16T06:45:57.810Z,22.10
2023-05-16T06:46:57.940Z,22.12
2023-05-16T06:47:57.904Z,22.56
2023-05-16T06:48:57.891Z,21.28
2023-05-16T06:49:57.974Z,21.39
2023-05-16T06:50:58.058Z,21.90
2023-05-16T06:51:58.088Z,20.92
2023-05-16T06:52:58.155Z,20.01
2023-05-16T06:53:58.211Z,19.26
2023-05-16T06:54:58.277Z,18.56
2023-05-16T06:55:58.316Z,18.33
2023-05-16T06:56:58.386Z,16.15
2023-05-16T06:57:58.439Z,16.07
2023-05-16T06:58:58.503Z,15.22
2023-05-16T06:59:58.569Z,15.14
2023-05-16T07:00:58.635Z,15.67
2023-05-16T07:01:58.676Z,13.92
2023-05-16T07:02:58.787Z,13.47
2023-05-16T07:03:58.931Z,13.04
2023-05-16T07:04:58.843Z,14.00
2023-05-16T07:05:58.903Z,12.54
2023-05-16T07:06:58.980Z,12.87
2023-05-16T07:07:59.081Z,12.98
2023-05-16T07:08:59.138Z,12.88
2023-05-16T07:09:59.202Z,12.37
2023-05-16T07:10:59.235Z,12.43
2023-05-16T07:11:59.284Z,11.88
2023-05-16T07:12:59.334Z,11.73
2023-05-16T07:13:59.420Z,11.81
2023-05-16T07:14:59.427Z,11.89
2023-05-16T07:15:59.564Z,11.47
2023-05-16T07:16:59.645Z,11.22
2023-05-16T07:17:59.704Z,11.67
2023-05-16T07:18:59.709Z,9.51
2023-05-16T07:19:59.736Z,9.81
2023-05-16T07:20:59.783Z,10.52
2023-05-16T07:21:59.829Z,10.92
2023-05-16T07:22:59.907Z,11.24
2023-05-16T07:23:59.948Z,10.45
2023-05-16T07:25:00.039Z,10.68
2023-05-16T07:26:00.087Z,9.35
2023-05-16T07:27:00.075Z,9.87
2023-05-16T07:28:00.239Z,10.39
2023-05-16T07:29:00.185Z,9.78
2023-05-16T07:30:00.253Z,8.53
2023-05-16T07:31:00.324Z,8.50
2023-05-16T07:32:00.441Z,9.18
2023-05-16T07:33:00.486Z,9.52
2023-05-16T07:34:00.544Z,8.33
2023-05-16T07:35:00.591Z,7.40
2023-05-16T07:36:12.010Z,6.35
2023-05-16T07:37:01.554Z,5.98
2023-05-16T07:38:00.559Z,5.56
2023-05-16T07:39:00.560Z,5.33
2023-05-16T07:40:00.537Z,5.16
2023-05-16T07:41:00.536Z,5.44
2023-05-16T07:42:00.560Z,6.45
2023-05-16T07:43:00.485Z,6.98
2023-05-16T07:44:00.488Z,6.87
2023-05-16T07:45:00.619Z,7.30
2023-05-16T07:46:00.644Z,6.74
2023-05-16T07:47:00.688Z,7.07
2023-05-16T07:48:00.749Z,6.20
2023-05-16T07:49:01.069Z,6.66
2023-05-16T07:50:00.800Z,6.14
2023-05-16T07:51:00.873Z,6.00
2023-05-16T07:52:01.048Z,5.73
2023-05-16T07:53:00.982Z,5.54
2023-05-16T07:54:01.014Z,4.81
2023-05-16T07:55:01.126Z,4.82
2023-05-16T07:56:01.141Z,4.94
2023-05-16T07:57:01.138Z,4.94
2023-05-16T07:58:01.235Z,5.15
2023-05-16T07:59:01.290Z,4.74
2023-05-16T08:00:01.382Z,4.87
2023-05-16T08:01:01.337Z,4.90
2023-05-16T08:02:01.399Z,4.92
2023-05-16T08:03:01.569Z,5.00
2023-05-16T08:04:01.690Z,5.18
2023-05-16T08:05:01.596Z,5.55
2023-05-16T08:06:01.652Z,5.90
2023-05-16T08:07:01.661Z,5.70
2023-05-16T08:08:01.689Z,6.11
2023-05-16T08:09:01.734Z,6.16
2023-05-16T08:10:01.797Z,5.86
2023-05-16T08:11:01.802Z,5.79
2023-05-16T08:12:02.079Z,5.99
2023-05-16T08:13:01.950Z,6.16
2023-05-16T08:14:01.983Z,6.06
2023-05-16T08:15:01.994Z,6.29
2023-05-16T08:16:02.119Z,6.48
2023-05-16T08:17:02.061Z,6.53
2023-05-16T08:18:02.137Z,6.82
2023-05-16T08:19:02.383Z,6.84
2023-05-16T08:20:02.238Z,6.91
2023-05-16T08:21:02.275Z,7.03
2023-05-16T08:22:02.298Z,7.08
2023-05-16T08:23:02.351Z,7.23
2023-05-16T08:24:02.840Z,7.51
2023-05-16T08:25:02.427Z,7.68
2023-05-16T08:26:02.469Z,7.82
2023-05-16T08:27:02.508Z,8.38
2023-05-16T08:28:02.605Z,10.40
2023-05-16T08:29:02.638Z,10.26
2023-05-16T08:30:02.645Z,10.01
2023-05-16T08:31:02.777Z,9.99
2023-05-16T08:32:02.833Z,9.98
2023-05-16T08:33:02.870Z,10.37
2023-05-16T08:34:02.894Z,10.88
2023-05-16T08:35:03.551Z,11.22
2023-05-16T08:36:03.060Z,10.53
2023-05-16T08:37:03.143Z,9.53
2023-05-16T08:38:03.345Z,7.96
2023-05-16T08:39:03.287Z,7.53
2023-05-16T08:40:03.182Z,7.24
2023-05-16T08:41:03.290Z,8.50
2023-05-16T08:42:03.295Z,8.28
2023-05-16T08:43:03.414Z,8.05
2023-05-16T08:44:03.416Z,7.83
2023-05-16T08:45:03.519Z,8.05
2023-05-16T08:46:03.486Z,8.41
2023-05-16T08:47:03.813Z,8.50
2023-05-16T08:48:03.710Z,9.33
2023-05-16T08:49:03.708Z,9.30
2023-05-16T08:50:03.686Z,9.10
2023-05-16T08:51:03.792Z,9.01
2023-05-16T08:52:03.833Z,8.52
2023-05-16T08:53:03.896Z,8.65
2023-05-16T08:54:03.915Z,8.76
2023-05-16T08:55:10.408Z,8.76
2023-05-16T08:56:04.953Z,8.78
2023-05-16T08:57:04.500Z,8.78
2023-05-16T08:58:03.932Z,8.40
2023-05-16T08:59:03.999Z,7.99
2023-05-16T09:00:03.943Z,7.74
2023-05-16T09:01:03.977Z,7.82
2023-05-16T09:02:03.911Z,7.89
2023-05-16T09:03:03.933Z,7.46
2023-05-16T09:04:03.971Z,7.32
2023-05-16T09:05:03.865Z,7.15
2023-05-16T09:06:04.553Z,6.79
2023-05-16T09:07:03.931Z,7.10
2023-05-16T09:08:03.890Z,6.73
2023-05-16T09:09:04.002Z,7.02
2023-05-16T09:10:03.996Z,6.68
2023-05-16T09:11:04.004Z,6.87
2023-05-16T09:12:04.180Z,5.31
2023-05-16T09:13:04.119Z,5.21
2023-05-16T09:14:04.129Z,5.39
2023-05-16T09:15:04.548Z,5.19
2023-05-16T09:16:04.245Z,4.84
2023-05-16T09:17:04.345Z,4.66
2023-05-16T09:18:04.422Z,4.71
2023-05-16T09:19:04.410Z,4.57
2023-05-16T09:20:04.362Z,3.93
2023-05-16T09:21:04.376Z,3.68
2023-05-16T09:22:04.489Z,3.46
2023-05-16T09:23:04.674Z,3.37
2023-05-16T09:24:04.561Z,3.42
2023-05-16T09:25:06.880Z,3.48
2023-05-16T09:26:04.478Z,3.48
2023-05-16T09:27:04.531Z,3.39
2023-05-16T09:28:04.609Z,3.22
2023-05-16T09:29:04.495Z,3.27
2023-05-16T09:30:04.659Z,3.31
2023-05-16T09:31:04.558Z,3.40
2023-05-16T09:32:04.476Z,3.47
2023-05-16T09:33:04.548Z,3.73
2023-05-16T09:34:04.546Z,4.16
2023-05-16T09:35:04.525Z,4.77
2023-05-16T09:36:04.501Z,4.48
2023-05-16T09:37:04.556Z,4.68
2023-05-16T09:38:04.514Z,4.11
2023-05-16T09:39:04.453Z,4.11
2023-05-16T09:40:04.464Z,4.16
2023-05-16T09:41:04.415Z,4.48
2023-05-16T09:42:04.429Z,4.16
2023-05-16T09:43:04.635Z,3.66
2023-05-16T09:44:04.391Z,3.59
2023-05-16T09:45:04.487Z,3.84
2023-05-16T09:46:04.473Z,3.30
2023-05-16T09:47:04.358Z,3.23
2023-05-16T09:48:04.408Z,3.00
2023-05-16T09:49:04.392Z,3.13
2023-05-16T09:50:04.432Z,3.06
2023-05-16T09:51:04.378Z,3.39
2023-05-16T09:52:04.320Z,3.47
2023-05-16T09:53:04.522Z,3.52
2023-05-16T09:54:04.347Z,3.27
2023-05-16T09:55:04.320Z,3.25
2023-05-16T09:56:04.529Z,3.14
2023-05-16T09:57:04.411Z,3.15
2023-05-16T09:58:04.337Z,3.11
2023-05-16T09:59:04.290Z,3.33
2023-05-16T10:00:04.298Z,3.72
2023-05-16T10:01:04.321Z,4.45
2023-05-16T10:02:04.290Z,4.93
2023-05-16T10:03:05.782Z,5.09
2023-05-16T10:04:04.565Z,5.41
2023-05-16T10:05:04.259Z,5.56
2023-05-16T10:06:04.255Z,5.77
2023-05-16T10:07:04.315Z,5.83
2023-05-16T10:08:04.217Z,6.08
2023-05-16T10:09:04.260Z,5.95
2023-05-16T10:10:04.339Z,5.91
2023-05-16T10:11:04.345Z,6.03
2023-05-16T10:12:04.366Z,6.33
2023-05-16T10:13:04.367Z,6.38
2023-05-16T10:14:06.046Z,6.54
2023-05-16T10:15:04.441Z,6.61
2023-05-16T10:16:04.581Z,6.79
2023-05-16T10:17:05.013Z,6.91
2023-05-16T10:18:04.426Z,7.03
2023-05-16T10:19:04.446Z,7.05
2023-05-16T10:20:04.370Z,6.85
2023-05-16T10:21:04.441Z,7.15
2023-05-16T10:22:04.402Z,7.00
2023-05-16T10:23:04.381Z,7.02
2023-05-16T10:24:04.350Z,6.95
2023-05-16T10:25:04.359Z,7.00
2023-05-16T10:26:04.322Z,6.66
2023-05-16T10:27:04.335Z,6.56
2023-05-16T10:28:04.346Z,6.52
2023-05-16T10:29:04.321Z,6.81
2023-05-16T10:30:04.271Z,7.19
2023-05-16T10:31:04.407Z,7.22
2023-05-16T10:32:04.321Z,7.28
2023-05-16T10:33:04.371Z,7.08
2023-05-16T10:34:04.278Z,7.19
2023-05-16T10:35:04.280Z,7.59
2023-05-16T10:36:04.291Z,7.74
2023-05-16T10:37:04.363Z,7.91
2023-05-16T10:38:06.578Z,8.08
2023-05-16T10:39:04.212Z,8.10
2023-05-16T10:40:04.194Z,8.18
2023-05-16T10:41:04.206Z,8.89
2023-05-16T10:42:04.196Z,9.81
2023-05-16T10:43:04.209Z,10.94
2023-05-16T10:44:04.173Z,11.39
2023-05-16T10:45:05.872Z,12.28
2023-05-16T10:46:04.246Z,13.90
2023-05-16T10:47:04.218Z,14.92
2023-05-16T10:48:04.205Z,16.36
2023-05-16T10:49:04.181Z,17.88
2023-05-16T10:50:04.107Z,18.21
2023-05-16T10:51:04.422Z,18.73
2023-05-16T10:52:04.116Z,20.27
2023-05-16T10:53:04.155Z,20.97
2023-05-16T10:54:04.415Z,22.32
2023-05-16T10:55:04.199Z,23.05
2023-05-16T10:56:04.255Z,21.08
2023-05-16T10:57:04.281Z,22.48
2023-05-16T10:58:04.388Z,23.92
2023-05-16T10:59:04.357Z,20.83
2023-05-16T11:00:04.385Z,20.98
2023-05-16T11:01:04.459Z,19.76
2023-05-16T11:02:04.663Z,21.06
2023-05-16T11:03:04.609Z,20.17
2023-05-16T11:04:04.910Z,20.24
2023-05-16T11:05:04.579Z,19.91
2023-05-16T11:06:04.628Z,20.68
2023-05-16T11:07:04.678Z,16.95
2023-05-16T11:08:04.703Z,19.02
2023-05-16T11:09:04.749Z,19.49
2023-05-16T11:10:04.792Z,17.61
2023-05-16T11:11:04.819Z,19.78
2023-05-16T11:12:04.876Z,17.30
2023-05-16T11:13:04.924Z,20.11
2023-05-16T11:14:05.063Z,18.74
2023-05-16T11:15:05.009Z,18.31
2023-05-16T11:16:05.095Z,19.88
2023-05-16T11:17:05.258Z,20.41
2023-05-16T11:18:05.630Z,19.72
2023-05-16T11:19:05.297Z,19.63
2023-05-16T11:20:05.403Z,20.22
2023-05-16T11:21:05.349Z,21.31
2023-05-16T11:22:05.421Z,22.06
2023-05-16T11:23:05.460Z,22.76
2023-05-16T11:24:05.466Z,22.67
2023-05-16T11:25:05.532Z,21.79
2023-05-16T11:26:05.568Z,22.32
2023-05-16T11:27:05.629Z,21.76
2023-05-16T11:28:05.941Z,21.31
2023-05-16T11:29:05.748Z,20.27
2023-05-16T11:30:05.795Z,19.75
2023-05-16T11:31:05.852Z,19.15
2023-05-16T11:32:05.954Z,18.32
2023-05-16T11:33:06.033Z,17.33
2023-05-16T11:34:05.957Z,17.22
2023-05-16T11:35:05.994Z,17.34
2023-05-16T11:37:06.022Z,17.03
2023-05-16T11:38:06.036Z,17.56
2023-05-16T11:39:06.029Z,17.19
2023-05-16T11:40:06.037Z,17.14
2023-05-16T11:41:05.984Z,17.31
2023-05-16T11:42:06.024Z,16.92
2023-05-16T11:43:07.472Z,16.96
2023-05-16T11:44:05.976Z,17.25
2023-05-16T11:45:05.970Z,16.51
2023-05-16T11:46:06.055Z,16.20
2023-05-16T11:47:06.036Z,15.49
2023-05-16T11:48:06.149Z,15.66
2023-05-16T11:49:05.951Z,15.37
2023-05-16T11:50:06.023Z,15.33
2023-05-16T11:51:05.932Z,14.58
2023-05-16T11:52:06.016Z,14.51
2023-05-16T11:53:05.927Z,14.23
2023-05-16T11:54:05.909Z,13.24
2023-05-16T11:55:05.950Z,12.68
2023-05-16T11:56:05.955Z,11.34
2023-05-16T11:57:05.904Z,11.60
2023-05-16T11:58:05.898Z,10.91
2023-05-16T11:59:05.914Z,10.55
2023-05-16T12:00:05.953Z,9.56
2023-05-16T12:01:06.103Z,8.79
2023-05-16T12:02:06.030Z,9.29
2023-05-16T12:03:06.706Z,9.43
2023-05-16T12:04:06.244Z,9.62
2023-05-16T12:05:06.198Z,9.56
2023-05-16T12:06:06.217Z,10.10
2023-05-16T12:07:06.259Z,10.17
2023-05-16T12:08:06.312Z,10.23
2023-05-16T12:09:06.420Z,10.63
2023-05-16T12:10:06.456Z,10.96
2023-05-16T12:11:06.982Z,11.43
2023-05-16T12:12:06.514Z,11.38
2023-05-16T12:13:06.585Z,11.08
2023-05-16T12:14:06.663Z,10.87
2023-05-16T12:15:06.684Z,10.65
2023-05-16T12:16:06.806Z,10.61
2023-05-16T12:17:06.915Z,10.57
2023-05-16T12:18:06.908Z,10.77
2023-05-16T12:19:07.076Z,10.50
2023-05-16T12:20:07.024Z,10.22
2023-05-16T12:21:07.069Z,10.22
2023-05-16T12:22:07.148Z,10.03
2023-05-16T12:23:07.266Z,9.89
2023-05-16T12:24:07.304Z,9.76
2023-05-16T12:25:07.307Z,9.68
2023-05-16T12:26:07.362Z,9.78
2023-05-16T12:27:07.441Z,9.58
2023-05-16T12:28:07.477Z,9.91
2023-05-16T12:29:07.620Z,9.82
2023-05-16T12:30:07.607Z,9.52
2023-05-16T12:31:13.286Z,9.65
2023-05-16T12:32:08.685Z,9.68
2023-05-16T12:33:08.387Z,9.70
2023-05-16T12:34:07.657Z,9.71
2023-05-16T12:35:07.604Z,9.57
2023-05-16T12:36:07.640Z,9.23
2023-05-16T12:37:07.620Z,8.91
2023-05-16T12:38:07.681Z,8.68
2023-05-16T12:39:09.301Z,8.41
2023-05-16T12:40:07.741Z,8.40
2023-05-16T12:41:07.804Z,8.46
2023-05-16T12:42:07.810Z,8.36
2023-05-16T12:43:07.897Z,8.37
2023-05-16T12:44:07.895Z,8.53
2023-05-16T12:45:08.581Z,8.79
2023-05-16T12:46:08.026Z,8.76
2023-05-16T12:47:08.056Z,8.95
2023-05-16T12:48:08.185Z,8.88
2023-05-16T12:49:08.565Z,9.09
2023-05-16T12:50:08.242Z,9.13
2023-05-16T12:51:08.325Z,9.09
2023-05-16T12:52:08.408Z,9.03
2023-05-16T12:53:08.430Z,8.99
2023-05-16T12:54:10.369Z,9.08
2023-05-16T12:55:08.544Z,9.24
2023-05-16T12:56:08.643Z,9.20
2023-05-16T12:57:08.702Z,9.11
2023-05-16T12:58:08.792Z,9.03
2023-05-16T12:59:09.113Z,9.04
2023-05-16T13:00:08.865Z,9.00
2023-05-16T13:01:08.962Z,8.77
2023-05-16T13:02:09.033Z,8.68
2023-05-16T13:03:09.167Z,8.83
2023-05-16T13:04:09.199Z,8.82
2023-05-16T13:05:10.148Z,9.01